Time;durP1;ratioP1;P1;durP2;ratioP2;P2;SDS_P1;SDS_P2;PMS_P1;PMS_P2;Temp;Humidity;BMP_temperature;BMP_pressure;BME280_temperature;BME280_humidity;BME280_pressure;Samples;Min_cycle;Max_cycle;Signal;HPM_P1;HPM_P2
2022/11/05 00:10:38;;;;;;;1.33;1.20;;;11.00;61.40;;;;;;5021747;28;20036;-75
2022/11/05 00:18:36;;;;;;;2.50;1.20;;;10.90;61.60;;;;;;5020001;28;20056;-76
2022/11/05 00:21:02;;;;;;;2.30;1.40;;;10.90;61.50;;;;;;5002711;28;20045;-76
2022/11/05 00:26:12;;;;;;;1.48;1.20;;;10.90;61.30;;;;;;5002517;28;20079;-77
2022/11/05 00:28:42;;;;;;;1.00;0.85;;;10.90;61.20;;;;;;5021277;28;20033;-76
2022/11/05 00:31:13;;;;;;;1.77;0.98;;;10.90;61.20;;;;;;5021087;28;20095;-75
2022/11/05 00:33:40;;;;;;;1.35;0.98;;;10.90;61.10;;;;;;5020111;28;20044;-75
2022/11/05 00:36:08;;;;;;;2.97;1.13;;;11.00;61.20;;;;;;5022249;28;20038;-73
2022/11/05 00:38:35;;;;;;;1.50;1.00;;;11.00;61.20;;;;;;5021109;28;20530;-76
2022/11/05 00:41:01;;;;;;;1.42;0.85;;;10.90;61.00;;;;;;5002178;28;20515;-75
2022/11/05 00:46:12;;;;;;;2.33;1.10;;;10.90;61.00;;;;;;5004456;28;20047;-75
2022/11/05 00:51:22;;;;;;;1.00;0.90;;;11.00;60.90;;;;;;5004421;28;20511;-75
2022/11/05 00:53:48;;;;;;;0.63;0.63;;;10.90;60.80;;;;;;5019127;28;20433;-75
2022/11/05 00:56:14;;;;;;;1.20;1.10;;;10.90;60.80;;;;;;5001698;28;20040;-77
2022/11/05 00:58:39;;;;;;;1.27;1.00;;;10.90;60.70;;;;;;5021111;28;20516;-76
2022/11/05 01:01:05;;;;;;;1.10;1.00;;;11.00;60.70;;;;;;5021172;28;20040;-77
2022/11/05 01:03:37;;;;;;;1.15;1.05;;;11.00;60.70;;;;;;5003339;28;20045;-77
2022/11/05 01:06:09;;;;;;;1.20;1.00;;;11.00;60.70;;;;;;5006899;28;20128;-77
2022/11/05 01:08:35;;;;;;;0.80;0.63;;;10.90;60.70;;;;;;5019289;28;20400;-77
2022/11/05 01:11:09;;;;;;;2.58;0.95;;;10.90;60.70;;;;;;5022901;28;20088;-77
2022/11/05 01:13:35;;;;;;;1.98;1.30;;;10.90;60.80;;;;;;5006417;28;20531;-77
2022/11/05 01:16:08;;;;;;;1.10;0.90;;;10.90;60.70;;;;;;5001694;28;20092;-77
2022/11/05 01:18:36;;;;;;;1.77;1.20;;;10.90;60.70;;;;;;5021298;28;20091;-77
2022/11/05 01:21:10;;;;;;;1.27;1.10;;;10.90;60.60;;;;;;4990709;28;20033;-77
2022/11/05 01:23:36;;;;;;;1.83;1.10;;;10.90;60.60;;;;;;5020759;28;20041;-77
2022/11/05 01:26:02;;;;;;;1.05;1.00;;;10.90;60.60;;;;;;5018893;28;20053;-77
2022/11/05 01:28:27;;;;;;;1.10;1.00;;;10.90;60.60;;;;;;4973433;28;20036;-77
2022/11/05 01:30:56;;;;;;;1.20;1.10;;;10.90;60.60;;;;;;5020492;28;20041;-77
2022/11/05 01:33:23;;;;;;;1.08;1.00;;;10.90;60.70;;;;;;5003385;28;20099;-77
2022/11/05 01:35:50;;;;;;;2.22;1.13;;;10.90;60.70;;;;;;5006062;28;20052;-76
2022/11/05 01:38:17;;;;;;;1.23;1.13;;;10.90;60.80;;;;;;5022610;28;20041;-77
2022/11/05 01:40:43;;;;;;;1.30;0.73;;;10.90;60.80;;;;;;5019821;28;20069;-78
2022/11/05 01:43:21;;;;;;;1.30;1.20;;;10.90;60.60;;;;;;5003858;28;20029;-77
2022/11/05 01:45:50;;;;;;;2.17;1.38;;;10.80;59.60;;;;;;5019620;28;20088;-76
2022/11/05 01:48:21;;;;;;;1.73;1.17;;;10.80;58.90;;;;;;5019414;28;20033;-76
2022/11/05 01:51:07;;;;;;;1.33;1.23;;;10.70;58.40;;;;;;5002831;28;20049;-76
2022/11/05 01:53:54;;;;;;;1.80;1.40;;;10.70;58.20;;;;;;5018803;28;20064;-76
2022/11/05 01:56:38;;;;;;;2.05;1.67;;;10.60;57.90;;;;;;5021291;28;20554;-76
2022/11/05 01:59:27;;;;;;;1.88;1.67;;;10.50;57.70;;;;;;5023140;28;20303;-76
2022/11/05 02:01:53;;;;;;;1.70;1.60;;;10.50;57.70;;;;;;5020478;28;20029;-76
2022/11/05 02:04:36;;;;;;;1.50;1.40;;;10.50;57.60;;;;;;5018857;28;20040;-76
2022/11/05 02:07:04;;;;;;;1.98;1.80;;;10.40;57.60;;;;;;5005106;28;20045;-76
2022/11/05 02:09:38;;;;;;;2.45;1.92;;;10.30;57.50;;;;;;5020284;28;20124;-76
2022/11/05 02:12:06;;;;;;;2.10;1.65;;;10.30;57.60;;;;;;5001697;28;20029;-76
2022/11/05 02:14:32;;;;;;;1.88;1.67;;;10.30;57.50;;;;;;5021481;28;20051;-76
2022/11/05 02:17:12;;;;;;;3.15;1.85;;;10.20;57.40;;;;;;5018967;28;20033;-76
2022/11/05 02:19:59;;;;;;;2.03;1.83;;;10.20;57.50;;;;;;5021672;28;20618;-75
2022/11/05 02:22:51;;;;;;;1.60;1.50;;;10.20;57.40;;;;;;5001861;28;20503;-77
2022/11/05 02:25:40;;;;;;;2.45;1.67;;;10.10;57.40;;;;;;5019098;28;20036;-78
2022/11/05 02:28:42;;;;;;;1.80;1.67;;;10.10;57.40;;;;;;4929214;29;20418;-77
2022/11/05 02:31:16;;;;;;;1.70;1.48;;;10.00;57.30;;;;;;4928207;29;20059;-77
2022/11/05 02:34:11;;;;;;;1.38;1.20;;;10.00;57.20;;;;;;4929460;29;20043;-76
2022/11/05 02:37:02;;;;;;;1.40;1.20;;;10.00;57.20;;;;;;4930035;29;20083;-76
2022/11/05 02:39:47;;;;;;;1.60;1.50;;;10.00;57.20;;;;;;4929813;29;20043;-76
2022/11/05 02:42:32;;;;;;;1.20;1.10;;;10.00;57.20;;;;;;4908924;29;20059;-77
2022/11/05 02:45:09;;;;;;;1.67;1.15;;;9.90;57.10;;;;;;4916759;29;20119;-77
2022/11/05 02:47:38;;;;;;;1.45;1.35;;;9.90;57.30;;;;;;4931119;29;20174;-76
2022/11/05 02:50:35;;;;;;;1.38;1.27;;;9.80;57.20;;;;;;4932270;29;20506;-76
2022/11/05 02:53:09;;;;;;;1.27;1.00;;;9.80;57.30;;;;;;4917905;29;20046;-76
2022/11/05 02:55:48;;;;;;;1.27;1.03;;;9.80;57.30;;;;;;4934360;29;20058;-76
2022/11/05 02:58:14;;;;;;;1.33;1.23;;;9.80;57.30;;;;;;4932137;29;20035;-76
2022/11/05 03:00:45;;;;;;;1.17;1.08;;;9.80;57.20;;;;;;4931841;29;20623;-76
2022/11/05 03:03:24;;;;;;;2.03;1.20;;;9.70;57.20;;;;;;4932358;29;20042;-76
2022/11/05 03:06:13;;;;;;;2.28;1.20;;;9.80;57.30;;;;;;5004478;28;20080;-76
2022/11/05 03:09:00;;;;;;;1.30;1.00;;;9.70;57.30;;;;;;5022129;28;20037;-76
2022/11/05 03:11:31;;;;;;;1.10;1.00;;;9.70;57.40;;;;;;5024757;28;20032;-76
2022/11/05 03:14:21;;;;;;;1.70;0.80;;;9.70;57.40;;;;;;5020272;28;20056;-74
2022/11/05 03:16:57;;;;;;;1.35;1.10;;;9.70;57.60;;;;;;5009539;28;20582;-75
2022/11/05 03:19:28;;;;;;;;;;;9.70;57.60;;;;;;5024007;28;20036;-75
2022/11/05 03:22:20;;;;;;;0.82;0.82;;;9.60;57.70;;;;;;5023530;28;20318;-75
2022/11/05 03:24:52;;;;;;;1.00;0.90;;;9.60;57.70;;;;;;5023421;28;20616;-75
2022/11/05 03:27:22;;;;;;;1.85;0.85;;;9.60;57.80;;;;;;5023019;28;20301;-75
2022/11/05 03:29:53;;;;;;;1.15;1.05;;;9.60;57.80;;;;;;5003144;28;20041;-76
2022/11/05 03:32:21;;;;;;;1.35;1.00;;;9.60;58.40;;;;;;5019777;28;20040;-75
2022/11/05 03:34:51;;;;;;;1.20;1.10;;;9.60;57.90;;;;;;5004839;28;20108;-75
2022/11/05 03:37:22;;;;;;;0.90;0.70;;;9.60;57.90;;;;;;5003246;28;20125;-75
2022/11/05 03:39:53;;;;;;;0.80;0.80;;;9.50;57.90;;;;;;5021593;28;20072;-75
2022/11/05 03:42:24;;;;;;;1.00;0.93;;;9.50;57.90;;;;;;5021333;28;20540;-75
2022/11/05 03:44:54;;;;;;;1.30;1.08;;;9.50;57.80;;;;;;5005157;28;20412;-75
2022/11/05 03:47:28;;;;;;;1.10;1.00;;;9.50;57.90;;;;;;5020950;28;20503;-75
2022/11/05 03:50:15;;;;;;;2.10;1.17;;;9.50;57.80;;;;;;5022773;28;20052;-75
2022/11/05 03:53:08;;;;;;;1.10;1.00;;;9.50;57.90;;;;;;5022924;28;20075;-75
2022/11/05 03:55:41;;;;;;;1.52;1.02;;;9.50;57.90;;;;;;5023623;28;20037;-75
2022/11/05 03:58:08;;;;;;;1.63;1.13;;;9.40;57.80;;;;;;5022360;28;20573;-77
2022/11/05 04:00:34;;;;;;;2.10;1.30;;;9.40;58.00;;;;;;5008178;28;20420;-77
2022/11/05 04:03:00;;;;;;;1.33;1.08;;;9.40;58.00;;;;;;5018894;28;20031;-76
2022/11/05 04:05:26;;;;;;;1.33;1.10;;;9.40;58.10;;;;;;5004098;28;20136;-76
2022/11/05 04:13:24;;;;;;;1.60;1.17;;;9.40;58.60;;;;;;5021732;28;20040;-76
2022/11/05 04:18:36;;;;;;;2.38;1.38;;;9.40;58.40;;;;;;5003009;28;20044;-76
2022/11/05 04:24:09;;;;;;;5.28;1.65;;;9.30;58.60;;;;;;5019816;28;20072;-76
2022/11/05 04:26:39;;;;;;;1.20;1.10;;;9.30;58.60;;;;;;5021362;28;20048;-76
2022/11/05 04:31:50;;;;;;;3.33;1.02;;;9.30;58.80;;;;;;5007453;28;20052;-76
2022/11/05 04:34:17;;;;;;;1.70;1.30;;;9.30;58.80;;;;;;5019876;28;20115;-75
2022/11/05 04:36:45;;;;;;;1.25;1.15;;;9.30;58.80;;;;;;5002214;28;20120;-76
2022/11/05 04:39:11;;;;;;;2.13;1.20;;;9.30;58.80;;;;;;4992915;28;20589;-77
2022/11/05 04:41:37;;;;;;;1.33;1.10;;;9.20;58.70;;;;;;5002932;28;20052;-76
2022/11/05 04:44:03;;;;;;;1.77;1.30;;;9.20;58.80;;;;;;5001846;28;20112;-76
2022/11/05 04:46:29;;;;;;;1.65;1.55;;;9.30;58.80;;;;;;5007199;28;20171;-76
2022/11/05 04:48:54;;;;;;;1.83;1.25;;;9.20;58.80;;;;;;5020234;28;20133;-76
2022/11/05 04:51:20;;;;;;;1.00;0.98;;;9.20;58.80;;;;;;5019562;28;20475;-76
2022/11/05 04:53:46;;;;;;;1.38;1.13;;;9.20;58.80;;;;;;4999285;28;20524;-76
2022/11/05 04:56:21;;;;;;;1.08;0.98;;;9.20;58.70;;;;;;5022004;28;20381;-76
2022/11/05 04:58:47;;;;;;;1.63;1.05;;;9.20;58.70;;;;;;5002371;28;20497;-76
2022/11/05 05:01:15;;;;;;;1.10;1.00;;;9.20;58.80;;;;;;4991320;28;20040;-78
2022/11/05 05:03:41;;;;;;;0.90;0.85;;;9.20;58.80;;;;;;5020940;28;20044;-78
2022/11/05 05:06:07;;;;;;;1.30;1.05;;;9.20;58.80;;;;;;5021759;28;20029;-76
2022/11/05 05:08:34;;;;;;;2.05;0.98;;;9.20;58.90;;;;;;5020507;28;20053;-78
2022/11/05 05:11:06;;;;;;;1.20;1.10;;;9.20;58.90;;;;;;5002202;28;20034;-76
2022/11/05 05:13:32;;;;;;;3.33;0.95;;;9.20;58.90;;;;;;5017692;28;20307;-78
2022/11/05 05:15:58;;;;;;;1.45;1.10;;;9.20;58.90;;;;;;5004906;28;20030;-77
2022/11/05 05:18:25;;;;;;;1.65;1.20;;;9.10;58.90;;;;;;5021098;28;20038;-77
2022/11/05 05:23:41;;;;;;;2.85;1.02;;;9.20;59.00;;;;;;5020037;28;20029;-76
2022/11/05 05:26:06;;;;;;;2.25;1.33;;;9.20;59.10;;;;;;5021847;28;20512;-76
2022/11/05 05:28:33;;;;;;;1.20;1.10;;;9.10;59.10;;;;;;5020376;28;20060;-76
2022/11/05 05:30:59;;;;;;;1.45;1.15;;;9.10;59.10;;;;;;5006276;28;20115;-76
2022/11/05 05:33:26;;;;;;;2.05;1.30;;;9.10;59.10;;;;;;5018521;28;20029;-76
2022/11/05 05:35:55;;;;;;;1.33;1.13;;;9.10;59.10;;;;;;5020319;28;20033;-76
2022/11/05 05:38:21;;;;;;;1.08;0.98;;;9.10;59.10;;;;;;5020447;28;20030;-75
2022/11/05 05:40:48;;;;;;;1.30;0.93;;;9.10;59.10;;;;;;5020239;28;20071;-76
2022/11/05 05:43:14;;;;;;;1.63;1.10;;;9.10;59.20;;;;;;5006024;28;20037;-76
2022/11/05 05:45:40;;;;;;;1.17;1.05;;;9.10;59.20;;;;;;5019537;28;20420;-76
2022/11/05 05:48:07;;;;;;;2.20;1.10;;;9.10;59.30;;;;;;5006100;28;20057;-76
2022/11/05 05:50:33;;;;;;;1.13;1.02;;;9.10;59.40;;;;;;5019708;28;20063;-76
2022/11/05 05:53:06;;;;;;;1.38;0.80;;;9.10;59.40;;;;;;5001482;28;20033;-81
2022/11/05 05:55:32;;;;;;;1.65;1.10;;;9.10;59.40;;;;;;5020801;28;20500;-80
2022/11/05 05:57:58;;;;;;;1.45;1.10;;;9.10;59.50;;;;;;5020487;28;20033;-77
2022/11/05 06:00:24;;;;;;;2.10;1.30;;;9.20;59.70;;;;;;5005139;28;20042;-81
2022/11/05 06:02:49;;;;;;;1.40;1.17;;;9.10;59.70;;;;;;5021755;28;20036;-83
2022/11/05 06:05:15;;;;;;;1.17;1.08;;;9.20;59.80;;;;;;5003061;28;20036;-78
2022/11/05 06:07:41;;;;;;;1.65;1.10;;;9.20;59.90;;;;;;5018800;28;20025;-80
2022/11/05 06:10:07;;;;;;;1.58;1.00;;;9.20;59.90;;;;;;5019719;28;20029;-85
2022/11/05 06:12:33;;;;;;;3.28;1.25;;;9.20;59.90;;;;;;5020506;28;20083;-79
2022/11/05 06:14:59;;;;;;;1.85;1.23;;;9.20;60.00;;;;;;5001424;28;20045;-78
2022/11/05 06:17:25;;;;;;;2.13;1.33;;;9.20;60.10;;;;;;5021618;28;20036;-78
2022/11/05 06:19:51;;;;;;;1.35;1.13;;;9.20;60.20;;;;;;5024401;28;20029;-78
2022/11/05 06:22:17;;;;;;;1.30;1.20;;;9.30;60.30;;;;;;4992916;28;20041;-79
2022/11/05 06:24:43;;;;;;;2.15;1.45;;;9.30;60.40;;;;;;5022657;28;20044;-79
2022/11/05 06:27:08;;;;;;;1.42;1.30;;;9.30;60.40;;;;;;5024306;28;20042;-79
2022/11/05 06:29:34;;;;;;;1.80;1.38;;;9.30;60.30;;;;;;5005745;28;20037;-81
2022/11/05 06:32:00;;;;;;;1.73;1.35;;;9.30;60.40;;;;;;5022144;28;20100;-79
2022/11/05 06:34:26;;;;;;;1.40;1.20;;;9.30;60.30;;;;;;5024764;28;20072;-81
2022/11/05 06:36:52;;;;;;;2.17;1.25;;;9.30;60.30;;;;;;5005481;28;20033;-78
2022/11/05 06:39:18;;;;;;;2.30;1.25;;;9.30;60.30;;;;;;5004303;28;20093;-76
2022/11/05 06:41:44;;;;;;;4.32;1.45;;;9.30;60.30;;;;;;5025682;28;20413;-76
2022/11/05 06:44:09;;;;;;;1.35;1.25;;;9.40;60.80;;;;;;5006257;28;20520;-76
2022/11/05 06:46:35;;;;;;;2.22;1.27;;;9.40;60.00;;;;;;5004654;28;20450;-79
2022/11/05 06:49:02;;;;;;;1.70;1.20;;;9.40;59.90;;;;;;5009176;28;20025;-77
2022/11/05 06:51:29;;;;;;;2.45;1.10;;;9.40;59.80;;;;;;5023340;28;20729;-76
2022/11/05 06:53:55;;;;;;;2.03;1.40;;;9.30;59.60;;;;;;5022569;28;20037;-77
2022/11/05 06:56:20;;;;;;;1.33;1.23;;;9.30;59.50;;;;;;5022813;28;20032;-77
2022/11/05 06:58:46;;;;;;;2.80;1.20;;;9.40;59.60;;;;;;5023314;28;20029;-78
2022/11/05 07:01:12;;;;;;;1.48;1.10;;;9.40;59.40;;;;;;5023185;28;20044;-76
2022/11/05 07:03:38;;;;;;;1.63;1.20;;;9.30;59.00;;;;;;5003027;28;20026;-77
2022/11/05 07:06:05;;;;;;;2.75;1.20;;;9.40;58.80;;;;;;5023026;28;20422;-77
2022/11/05 07:08:33;;;;;;;1.42;0.90;;;9.30;58.50;;;;;;4976320;28;20637;-78
2022/11/05 07:10:59;;;;;;;1.02;0.93;;;9.40;58.40;;;;;;5023061;28;20030;-76
2022/11/05 07:13:25;;;;;;;1.23;1.10;;;9.30;58.10;;;;;;5022015;28;20037;-75
2022/11/05 07:15:51;;;;;;;1.17;1.08;;;9.40;58.00;;;;;;5003866;28;20041;-78
2022/11/05 07:18:17;;;;;;;1.25;1.10;;;9.30;57.80;;;;;;4994600;28;20051;-77
2022/11/05 07:20:42;;;;;;;1.13;1.08;;;9.30;57.80;;;;;;5023378;28;20500;-78
2022/11/05 07:23:13;;;;;;;2.50;1.42;;;9.30;57.80;;;;;;5002951;28;20041;-79
2022/11/05 07:25:40;;;;;;;2.00;1.40;;;9.30;57.80;;;;;;5021000;28;20493;-80
2022/11/05 07:28:07;;;;;;;2.42;1.10;;;9.30;57.80;;;;;;5021602;28;20500;-84
2022/11/05 07:30:34;;;;;;;1.50;1.30;;;9.30;57.70;;;;;;5023694;28;20393;-82
2022/11/05 07:33:00;;;;;;;1.10;0.93;;;9.30;57.70;;;;;;4988804;28;20152;-80
2022/11/05 07:35:26;;;;;;;1.08;0.98;;;9.30;57.60;;;;;;5008246;28;20026;-78
2022/11/05 07:37:54;;;;;;;1.33;1.00;;;9.30;57.40;;;;;;5003880;28;20030;-78
2022/11/05 07:40:22;;;;;;;2.05;0.90;;;9.30;57.20;;;;;;5003774;28;21336;-78
2022/11/05 07:42:53;;;;;;;0.60;0.60;;;9.30;57.00;;;;;;5010480;28;20037;-80
2022/11/05 07:45:19;;;;;;;1.02;0.80;;;9.30;57.00;;;;;;4989570;28;20403;-79
2022/11/05 07:47:49;;;;;;;1.10;1.00;;;9.30;57.00;;;;;;5006082;28;20033;-78
2022/11/05 07:50:18;;;;;;;2.38;0.88;;;9.30;57.10;;;;;;5007700;28;20681;-80
2022/11/05 07:52:44;;;;;;;1.58;0.90;;;9.30;57.10;;;;;;5031994;28;20029;-87
2022/11/05 07:55:12;;;;;;;1.55;1.23;;;9.30;57.10;;;;;;5025097;28;20026;-84
2022/11/05 07:57:48;;;;;;;1.30;0.70;;;9.30;57.20;;;;;;5004151;28;20033;-85
2022/11/05 08:00:17;;;;;;;2.53;1.00;;;9.30;57.20;;;;;;5026054;28;20029;-84
2022/11/05 08:02:42;;;;;;;3.58;1.45;;;9.30;57.20;;;;;;5025103;28;20038;-91
2022/11/05 08:05:09;;;;;;;1.27;1.02;;;9.30;57.20;;;;;;5026136;28;20033;-89
2022/11/05 08:07:35;;;;;;;6.43;1.48;;;9.30;57.20;;;;;;5023490;28;20516;-83
2022/11/05 08:10:04;;;;;;;1.42;0.90;;;9.30;57.20;;;;;;5004645;28;20025;-87
2022/11/05 08:12:31;;;;;;;0.70;0.63;;;9.30;57.10;;;;;;5007819;28;20550;-84
2022/11/05 08:14:57;;;;;;;4.43;1.13;;;9.30;56.90;;;;;;5007218;28;20034;-83
2022/11/05 08:17:23;;;;;;;0.75;0.75;;;9.30;56.90;;;;;;5023999;28;20043;-89
2022/11/05 08:19:49;;;;;;;1.33;0.90;;;9.30;56.90;;;;;;5021597;28;20044;-87
2022/11/05 08:22:15;;;;;;;1.80;1.13;;;9.30;57.00;;;;;;4991911;28;20523;-85
2022/11/05 08:24:42;;;;;;;2.13;1.10;;;9.30;57.10;;;;;;4994062;28;20025;-88
2022/11/05 08:27:08;;;;;;;1.33;1.00;;;9.30;57.20;;;;;;4992621;28;20026;-83
2022/11/05 08:29:34;;;;;;;1.70;1.25;;;9.30;57.30;;;;;;4992824;28;20060;-83
2022/11/05 08:32:00;;;;;;;2.03;0.95;;;9.30;57.40;;;;;;5001370;28;20041;-83
2022/11/05 08:34:26;;;;;;;2.70;1.23;;;9.30;57.50;;;;;;5023397;28;20034;-84
2022/11/05 08:36:51;;;;;;;1.50;1.05;;;9.30;57.60;;;;;;5022486;28;20033;-86
2022/11/05 08:39:18;;;;;;;2.75;1.00;;;9.30;57.70;;;;;;4991376;28;20096;-87
2022/11/05 08:41:45;;;;;;;2.75;1.23;;;9.40;57.80;;;;;;5024314;28;20088;-88
2022/11/05 08:44:11;;;;;;;1.08;1.00;;;9.30;57.70;;;;;;5021909;28;20396;-87
2022/11/05 08:46:37;;;;;;;2.60;1.52;;;9.30;57.70;;;;;;5023047;28;20486;-86
2022/11/05 08:49:04;;;;;;;1.20;1.00;;;9.30;57.60;;;;;;5023243;28;20120;-86
2022/11/05 08:51:33;;;;;;;2.25;0.80;;;9.40;57.70;;;;;;5004418;28;20051;-86
2022/11/05 08:53:59;;;;;;;1.67;1.20;;;9.30;57.60;;;;;;4994473;28;20516;-92
2022/11/05 08:56:25;;;;;;;1.10;1.00;;;9.40;57.50;;;;;;5006166;28;20081;-84
2022/11/05 08:58:51;;;;;;;1.25;1.10;;;9.40;57.50;;;;;;5022186;28;20063;-85
2022/11/05 09:01:17;;;;;;;3.38;1.30;;;9.40;57.40;;;;;;5002104;28;20041;-82
2022/11/05 09:03:43;;;;;;;1.20;1.10;;;9.40;57.50;;;;;;5008711;28;20469;-88
2022/11/05 09:06:09;;;;;;;1.35;1.17;;;9.40;57.40;;;;;;5005432;28;20033;-81
2022/11/05 09:08:35;;;;;;;1.42;1.30;;;9.40;57.30;;;;;;4975954;28;20534;-82
2022/11/05 09:11:01;;;;;;;1.70;1.30;;;9.40;57.20;;;;;;5007003;28;20038;-81
2022/11/05 09:13:27;;;;;;;1.92;1.38;;;9.40;57.10;;;;;;4986264;28;20036;-86
2022/11/05 09:15:53;;;;;;;1.35;1.23;;;9.40;57.00;;;;;;5005127;28;20435;-85
2022/11/05 09:18:19;;;;;;;1.17;1.08;;;9.40;56.90;;;;;;5022329;28;20030;-88
2022/11/05 09:20:45;;;;;;;1.35;1.20;;;9.40;56.80;;;;;;5000465;28;20037;-88
2022/11/05 09:23:15;;;;;;;3.10;1.25;;;9.40;56.70;;;;;;5005486;28;20370;-88
2022/11/05 09:25:41;;;;;;;1.80;1.50;;;9.40;56.80;;;;;;5022161;28;20037;-80
2022/11/05 09:28:09;;;;;;;1.40;1.30;;;9.40;57.10;;;;;;5004297;28;20030;-85
2022/11/05 09:30:40;;;;;;;2.33;1.70;;;9.40;58.40;;;;;;5008681;28;20033;-84
2022/11/05 09:33:06;;;;;;;3.65;1.55;;;9.40;58.50;;;;;;5023547;28;20030;-84
2022/11/05 09:35:32;;;;;;;2.38;1.83;;;9.40;58.60;;;;;;5020689;28;20026;-76
2022/11/05 09:37:57;;;;;;;2.47;1.50;;;9.30;58.50;;;;;;5006281;28;20038;-80
2022/11/05 09:40:25;;;;;;;3.05;1.60;;;9.30;58.40;;;;;;4991332;28;20030;-82
2022/11/05 09:42:53;;;;;;;2.30;1.38;;;9.30;58.50;;;;;;5020897;28;20075;-84
2022/11/05 09:45:22;;;;;;;1.95;1.23;;;9.30;58.60;;;;;;5003713;28;20037;-90
2022/11/05 09:47:58;;;;;;;2.90;1.63;;;9.30;58.70;;;;;;5020467;28;20041;-82
2022/11/05 09:50:39;;;;;;;;;;;9.20;58.50;;;;;;5001884;28;20049;-82
2022/11/05 09:53:06;;;;;;;2.10;1.35;;;9.20;58.30;;;;;;5025410;28;19913;-84
2022/11/05 09:55:40;;;;;;;2.85;1.20;;;9.20;58.30;;;;;;5008876;28;20038;-84
2022/11/05 09:58:19;;;;;;;2.65;1.38;;;9.20;58.30;;;;;;5007095;28;20065;-81
2022/11/05 10:00:49;;;;;;;2.40;1.42;;;9.20;58.40;;;;;;5006051;28;20065;-82
2022/11/05 10:03:21;;;;;;;3.72;1.40;;;9.10;59.20;;;;;;5024683;28;20479;-83
2022/11/05 10:05:48;;;;;;;3.53;1.60;;;9.10;58.60;;;;;;5025517;28;20026;-83
2022/11/05 10:08:24;;;;;;;2.33;1.80;;;9.10;58.50;;;;;;5009309;28;20083;-83
2022/11/05 10:11:03;;;;;;;2.30;1.70;;;9.10;59.20;;;;;;5025831;28;20114;-81
2022/11/05 10:13:32;;;;;;;3.20;1.67;;;9.10;58.70;;;;;;4991933;28;20394;-82
2022/11/05 10:16:03;;;;;;;4.00;1.48;;;9.10;59.00;;;;;;5023133;28;20854;-81
2022/11/05 10:18:38;;;;;;;3.35;1.60;;;9.10;59.10;;;;;;5024695;28;20037;-80
2022/11/05 10:21:05;;;;;;;1.83;1.42;;;9.10;59.20;;;;;;5025525;28;20087;-81
2022/11/05 10:23:32;;;;;;;3.28;1.60;;;9.10;59.20;;;;;;5023181;28;20034;-81
2022/11/05 10:26:01;;;;;;;2.45;1.63;;;9.10;59.10;;;;;;5005541;28;20034;-79
2022/11/05 10:28:29;;;;;;;2.33;1.80;;;9.10;59.10;;;;;;4994271;28;20447;-80
2022/11/05 10:31:11;;;;;;;1.95;1.60;;;9.10;59.10;;;;;;5005556;28;20033;-80
2022/11/05 10:33:45;;;;;;;2.33;1.63;;;9.10;59.10;;;;;;5007458;28;20707;-80
2022/11/05 10:36:21;;;;;;;3.75;1.60;;;9.10;58.90;;;;;;5023688;28;20037;-81
2022/11/05 10:38:47;;;;;;;3.05;1.60;;;9.20;58.90;;;;;;5023825;28;20568;-79
2022/11/05 10:42:13;;;;;;;3.97;1.90;;;9.10;58.90;;;;;;5024442;28;20492;-81
2022/11/05 10:44:57;;;;;;;2.83;1.98;;;9.10;59.00;;;;;;4944372;29;20047;-79
2022/11/05 10:47:43;;;;;;;5.00;2.13;;;9.10;59.70;;;;;;5025161;28;20021;-79
2022/11/05 10:50:14;;;;;;;3.90;1.75;;;9.10;60.00;;;;;;5026434;28;20057;-80
2022/11/05 10:53:01;;;;;;;3.58;2.08;;;9.10;60.30;;;;;;5004036;28;20555;-80
2022/11/05 10:55:36;;;;;;;4.35;1.92;;;9.10;60.40;;;;;;5022887;28;20044;-82
2022/11/05 10:58:14;;;;;;;3.47;1.90;;;9.20;60.50;;;;;;4977832;28;20086;-77
2022/11/05 11:00:42;;;;;;;2.22;1.75;;;9.20;60.60;;;;;;5025773;28;20536;-81
2022/11/05 11:03:30;;;;;;;2.05;1.70;;;9.20;60.40;;;;;;5021666;28;20076;-78
2022/11/05 11:06:15;;;;;;;2.42;1.67;;;9.20;60.50;;;;;;5023484;28;20025;-83
2022/11/05 11:08:44;;;;;;;1.80;1.50;;;9.20;60.60;;;;;;5005019;28;20033;-86
2022/11/05 11:11:12;;;;;;;23.70;2.17;;;9.30;62.00;;;;;;5023416;28;20040;-86
2022/11/05 11:14:10;;;;;;;11.32;1.98;;;9.40;63.30;;;;;;4993532;28;20044;-83
2022/11/05 11:16:42;;;;;;;10.07;1.83;;;9.50;63.00;;;;;;5023407;28;20365;-85
2022/11/05 11:19:20;;;;;;;4.53;1.70;;;9.50;62.60;;;;;;5023930;28;20578;-90
2022/11/05 11:22:08;;;;;;;4.78;1.67;;;9.60;62.10;;;;;;5007091;28;20048;-81
2022/11/05 11:24:48;;;;;;;3.33;1.80;;;9.70;62.00;;;;;;5024491;28;20034;-89
2022/11/05 11:27:25;;;;;;;3.05;1.35;;;9.70;62.00;;;;;;5026486;28;20087;-88
2022/11/05 11:29:58;;;;;;;3.72;1.55;;;9.80;61.90;;;;;;5027149;28;20037;-85
2022/11/05 11:32:35;;;;;;;3.65;1.98;;;9.90;61.50;;;;;;5005002;28;20622;-83
2022/11/05 11:35:02;;;;;;;2.75;1.83;;;9.90;61.20;;;;;;5023436;28;20037;-80
2022/11/05 11:37:33;;;;;;;2.65;2.00;;;9.90;61.00;;;;;;5023593;28;20037;-85
2022/11/05 11:40:14;;;;;;;3.30;2.30;;;9.90;60.90;;;;;;5024350;28;20037;-86
2022/11/05 11:42:45;;;;;;;3.22;2.47;;;9.90;60.80;;;;;;5023286;28;20048;-85
2022/11/05 11:45:45;;;;;;;4.88;2.53;;;9.90;60.80;;;;;;5026299;28;20033;-88
2022/11/05 11:48:22;;;;;;;4.18;2.60;;;9.90;60.80;;;;;;5005389;28;20036;-83
2022/11/05 11:50:49;;;;;;;4.93;3.35;;;9.90;60.80;;;;;;5026589;28;20500;-82
2022/11/05 11:53:33;;;;;;;3.20;2.70;;;9.90;60.70;;;;;;5006447;28;20392;-90
2022/11/05 11:56:13;;;;;;;4.07;2.70;;;9.90;60.80;;;;;;5026845;28;20512;-85
2022/11/05 11:58:42;;;;;;;5.25;3.15;;;9.90;60.20;;;;;;5025657;28;20033;-81
2022/11/05 12:01:20;;;;;;;4.90;2.72;;;9.90;60.30;;;;;;5006592;28;20065;-82
2022/11/05 12:03:52;;;;;;;5.18;3.05;;;9.90;61.10;;;;;;5024261;28;20124;-78
2022/11/05 12:06:34;;;;;;;4.32;3.28;;;9.90;61.90;;;;;;5022923;28;20112;-79
2022/11/05 12:09:09;;;;;;;4.45;3.22;;;9.90;62.30;;;;;;5024497;28;20072;-80
2022/11/05 12:11:44;;;;;;;3.80;3.05;;;10.00;63.00;;;;;;5024393;28;20076;-80
2022/11/05 12:14:32;;;;;;;;;;;10.00;63.60;;;;;;5022050;28;20044;-80
2022/11/05 12:17:00;;;;;;;;;;;10.00;64.00;;;;;;5024373;28;19917;-79
2022/11/05 12:19:40;;;;;;;4.70;2.85;;;10.00;64.20;;;;;;5023564;28;20375;-83
2022/11/05 12:22:16;;;;;;;3.72;2.70;;;10.10;64.30;;;;;;4986695;28;20486;-85
2022/11/05 12:25:04;;;;;;;4.28;3.10;;;10.10;64.20;;;;;;5024219;28;20098;-87
2022/11/05 12:27:44;;;;;;;4.90;2.88;;;10.10;64.30;;;;;;5024063;28;20124;-85
2022/11/05 12:30:18;;;;;;;3.63;2.88;;;10.10;64.10;;;;;;5022250;28;20168;-90
2022/11/05 12:32:53;;;;;;;3.47;2.47;;;10.10;64.10;;;;;;5003744;28;20033;-86
2022/11/05 12:35:28;;;;;;;2.70;2.47;;;10.10;63.90;;;;;;5022300;28;20847;-81
2022/11/05 12:38:14;;;;;;;3.60;2.60;;;10.10;63.80;;;;;;5025261;28;20067;-86
2022/11/05 12:40:59;;;;;;;2.83;2.50;;;10.10;63.50;;;;;;5003839;28;20048;-86
2022/11/05 12:44:01;;;;;;;3.30;2.40;;;10.10;63.30;;;;;;5025067;28;20029;-85
2022/11/05 12:47:08;;;;;;;3.40;2.42;;;10.10;63.30;;;;;;5009839;28;20397;-85
2022/11/05 12:50:01;;;;;;;3.25;2.58;;;10.10;63.40;;;;;;5009889;28;20037;-83
2022/11/05 12:52:56;;;;;;;2.53;2.30;;;10.10;63.40;;;;;;4996962;28;20446;-84
2022/11/05 12:55:24;;;;;;;3.65;2.63;;;10.10;63.40;;;;;;4995982;28;20045;-87
2022/11/05 12:58:00;;;;;;;3.65;2.72;;;10.10;63.20;;;;;;5025114;28;20043;-88
2022/11/05 13:00:29;;;;;;;4.72;2.65;;;10.20;63.20;;;;;;5009285;28;20049;-90
2022/11/05 13:03:13;;;;;;;6.13;2.90;;;10.20;63.10;;;;;;5026308;28;20034;-89
2022/11/05 13:05:54;;;;;;;4.35;2.83;;;10.20;62.90;;;;;;5007610;28;20029;-85
2022/11/05 13:08:29;;;;;;;4.25;2.65;;;10.20;62.80;;;;;;5024075;28;20049;-84
2022/11/05 13:11:21;;;;;;;4.63;2.92;;;10.20;62.80;;;;;;5025745;28;20025;-92
2022/11/05 13:13:51;;;;;;;3.75;2.50;;;10.20;62.80;;;;;;5023970;28;20025;-90
2022/11/05 13:16:37;;;;;;;4.30;3.00;;;10.20;62.80;;;;;;5028592;28;20037;-85
2022/11/05 13:19:25;;;;;;;5.28;2.60;;;10.20;62.70;;;;;;5009226;28;20038;-86
2022/11/05 13:22:13;;;;;;;3.70;3.00;;;10.20;62.50;;;;;;5030643;28;20045;-88
2022/11/05 13:24:48;;;;;;;4.47;2.83;;;10.20;62.20;;;;;;5024866;28;20302;-84
2022/11/05 13:27:41;;;;;;;3.60;2.70;;;10.20;62.00;;;;;;5006878;28;20052;-85
2022/11/05 13:30:37;;;;;;;3.30;2.30;;;10.20;61.90;;;;;;5002419;28;20026;-85
2022/11/05 13:33:29;;;;;;;3.00;2.70;;;10.20;61.90;;;;;;4999922;28;20040;-84
2022/11/05 13:39:11;;;;;;;3.45;2.40;;;10.20;61.70;;;;;;5001890;28;20125;-85
2022/11/05 13:41:51;;;;;;;3.13;2.70;;;10.20;61.80;;;;;;4994501;28;20048;-85
2022/11/05 13:44:26;;;;;;;3.10;2.60;;;10.20;62.00;;;;;;5021307;28;20144;-86
2022/11/05 13:47:19;;;;;;;5.43;2.58;;;10.20;62.00;;;;;;5021433;28;20415;-87
2022/11/05 13:49:55;;;;;;;4.43;2.47;;;10.20;61.90;;;;;;5002161;28;20129;-84
2022/11/05 13:52:54;;;;;;;3.65;2.40;;;10.20;61.90;;;;;;5019869;28;20036;-84
2022/11/05 13:55:41;;;;;;;3.97;3.15;;;10.20;61.80;;;;;;5020574;28;20029;-86
2022/11/05 13:58:48;;;;;;;3.92;2.45;;;10.20;61.80;;;;;;5006992;28;20408;-86
2022/11/05 14:01:22;;;;;;;5.07;2.65;;;10.20;61.70;;;;;;5021299;28;20040;-87
2022/11/05 14:03:52;;;;;;;2.93;2.50;;;10.20;61.50;;;;;;5003434;28;20119;-87
2022/11/05 14:06:35;;;;;;;4.20;2.83;;;10.20;61.40;;;;;;5021022;28;20773;-82